createdAt,value
2023-03-12T00:00:17.106Z,63.90
2023-03-12T00:02:44.022Z,64.10
2023-03-12T00:05:11.272Z,64.10
2023-03-12T00:07:39.381Z,64.10
2023-03-12T00:10:07.349Z,64.00
2023-03-12T00:12:34.344Z,63.90
2023-03-12T00:15:01.321Z,64.00
2023-03-12T00:17:29.356Z,63.90
2023-03-12T00:19:56.496Z,63.90
2023-03-12T00:22:23.386Z,63.80
2023-03-12T00:24:54.989Z,63.80
2023-03-12T00:27:22.147Z,63.80
2023-03-12T00:29:49.914Z,63.70
2023-03-12T00:32:16.950Z,63.60
2023-03-12T00:34:44.052Z,63.30
2023-03-12T00:37:10.927Z,63.20
2023-03-12T00:39:37.818Z,63.10
2023-03-12T00:42:04.988Z,63.00
2023-03-12T00:44:31.882Z,63.00
2023-03-12T00:46:59.012Z,62.80
2023-03-12T00:49:26.072Z,62.80
2023-03-12T00:51:54.087Z,62.90
2023-03-12T00:54:21.303Z,63.00
2023-03-12T00:56:48.753Z,63.00
2023-03-12T00:59:15.964Z,63.00
2023-03-12T01:01:43.201Z,62.80
2023-03-12T01:04:10.144Z,62.90
2023-03-12T01:06:37.128Z,62.80
2023-03-12T01:09:06.061Z,62.70
2023-03-12T01:11:33.709Z,62.60
2023-03-12T01:14:01.718Z,62.60
2023-03-12T01:16:30.347Z,62.60
2023-03-12T01:18:58.991Z,62.70
2023-03-12T01:21:26.602Z,62.70
2023-03-12T01:23:54.063Z,62.70
2023-03-12T01:26:20.960Z,62.80
2023-03-12T01:28:48.684Z,62.80
2023-03-12T01:31:21.486Z,62.90
2023-03-12T01:33:51.220Z,63.00
2023-03-12T01:36:22.773Z,63.00
2023-03-12T01:38:58.270Z,63.00
2023-03-12T01:41:27.941Z,63.90
2023-03-12T01:43:54.848Z,63.10
2023-03-12T01:46:30.862Z,63.20
2023-03-12T01:48:58.061Z,63.20
2023-03-12T01:51:29.281Z,63.30
2023-03-12T01:54:00.862Z,63.40
2023-03-12T01:56:32.266Z,63.50
2023-03-12T01:59:02.591Z,63.60
2023-03-12T02:01:30.787Z,63.70
2023-03-12T02:03:59.951Z,63.70
2023-03-12T02:06:49.371Z,63.80
2023-03-12T02:09:20.165Z,63.80
2023-03-12T02:11:48.421Z,64.00
2023-03-12T02:14:16.155Z,65.00
2023-03-12T02:16:43.948Z,64.30
2023-03-12T02:19:29.916Z,64.30
2023-03-12T02:21:58.280Z,64.30
2023-03-12T02:24:30.105Z,64.30
2023-03-12T02:26:58.003Z,64.30
2023-03-12T02:29:27.049Z,64.30
2023-03-12T02:31:56.889Z,64.30
2023-03-12T02:34:23.938Z,64.30
2023-03-12T02:36:50.901Z,64.30
2023-03-12T02:39:19.591Z,64.30
2023-03-12T02:41:53.816Z,64.30
2023-03-12T02:44:31.298Z,64.50
2023-03-12T02:47:01.210Z,64.30
2023-03-12T02:49:32.080Z,64.30
2023-03-12T02:52:00.609Z,64.30
2023-03-12T02:54:27.974Z,64.30
2023-03-12T02:56:54.997Z,64.30
2023-03-12T02:59:25.288Z,64.30
2023-03-12T03:01:55.874Z,64.30
2023-03-12T03:04:23.708Z,64.30
2023-03-12T03:06:51.025Z,64.30
2023-03-12T03:09:18.321Z,64.30
2023-03-12T03:11:45.316Z,64.30
2023-03-12T03:14:12.671Z,64.30
2023-03-12T03:16:39.623Z,64.40
2023-03-12T03:19:07.358Z,64.30
2023-03-12T03:21:35.777Z,64.30
2023-03-12T03:24:03.085Z,64.30
2023-03-12T03:26:29.972Z,64.30
2023-03-12T03:28:56.852Z,64.30
2023-03-12T03:31:23.859Z,64.40
2023-03-12T03:33:50.923Z,64.30
2023-03-12T03:36:18.891Z,64.30
2023-03-12T03:39:01.581Z,64.40
2023-03-12T03:41:30.288Z,64.40
2023-03-12T03:43:58.822Z,64.50
2023-03-12T03:46:26.691Z,64.40
2023-03-12T03:48:59.449Z,64.30
2023-03-12T03:51:27.266Z,64.60
2023-03-12T03:54:00.367Z,64.60
2023-03-12T03:56:28.153Z,64.30
2023-03-12T03:58:57.740Z,64.40
2023-03-12T04:01:24.676Z,64.50
2023-03-12T04:03:52.076Z,64.60
2023-03-12T04:06:19.058Z,64.70
2023-03-12T04:08:46.010Z,64.90
2023-03-12T04:11:19.360Z,65.10
2023-03-12T04:13:47.401Z,65.20
2023-03-12T04:16:17.178Z,65.20
2023-03-12T04:18:45.176Z,65.30
2023-03-12T04:21:13.655Z,65.40
2023-03-12T04:23:41.323Z,65.40
2023-03-12T04:26:09.844Z,65.20
2023-03-12T04:28:37.897Z,65.20
2023-03-12T04:31:07.558Z,65.30
2023-03-12T04:33:39.693Z,65.40
2023-03-12T04:36:08.691Z,65.60
2023-03-12T04:38:38.006Z,65.60
2023-03-12T04:41:10.319Z,65.70
2023-03-12T04:43:40.949Z,65.80
2023-03-12T04:46:08.528Z,66.00
2023-03-12T04:48:44.054Z,66.10
2023-03-12T04:51:11.692Z,66.40
2023-03-12T04:53:40.502Z,66.60
2023-03-12T04:56:09.376Z,66.80
2023-03-12T04:58:37.284Z,67.00
2023-03-12T05:01:05.631Z,67.20
2023-03-12T05:03:33.118Z,67.40
2023-03-12T05:06:00.543Z,67.80
2023-03-12T05:08:27.491Z,68.10
2023-03-12T05:10:54.432Z,68.40
2023-03-12T05:13:22.951Z,68.70
2023-03-12T05:15:53.409Z,68.80
2023-03-12T05:18:21.551Z,68.90
2023-03-12T05:20:58.963Z,69.10
2023-03-12T05:23:26.360Z,69.30
2023-03-12T05:25:53.312Z,69.40
2023-03-12T05:28:20.366Z,69.70
2023-03-12T05:30:47.941Z,69.80
2023-03-12T05:33:14.904Z,69.80
2023-03-12T05:35:41.882Z,69.80
2023-03-12T05:38:08.840Z,70.00
2023-03-12T05:40:35.686Z,70.00
2023-03-12T05:43:02.585Z,70.00
2023-03-12T05:45:29.599Z,70.00
2023-03-12T05:47:59.024Z,70.00
2023-03-12T05:50:27.856Z,70.10
2023-03-12T05:52:54.881Z,70.30
2023-03-12T05:55:21.857Z,70.30
2023-03-12T05:57:48.818Z,70.50
2023-03-12T06:00:16.297Z,70.50
2023-03-12T06:02:51.488Z,70.60
2023-03-12T06:05:19.254Z,70.60
2023-03-12T06:07:46.193Z,70.60
2023-03-12T06:10:13.072Z,70.80
2023-03-12T06:12:40.227Z,70.70
2023-03-12T06:15:07.737Z,70.80
2023-03-12T06:17:34.737Z,70.90
2023-03-12T06:20:01.732Z,71.10
2023-03-12T06:22:30.096Z,71.20
2023-03-12T06:24:57.218Z,71.30
2023-03-12T06:27:24.890Z,71.50
2023-03-12T06:29:52.008Z,71.60
2023-03-12T06:32:19.556Z,71.80
2023-03-12T06:34:46.450Z,71.90
2023-03-12T06:37:13.367Z,72.00
2023-03-12T06:39:40.236Z,72.70
2023-03-12T06:42:07.327Z,72.40
2023-03-12T06:44:34.235Z,72.70
2023-03-12T06:47:01.145Z,72.90
2023-03-12T06:49:32.161Z,73.20
2023-03-12T06:51:59.263Z,73.40
2023-03-12T06:54:26.101Z,73.70
2023-03-12T06:56:53.424Z,73.90
2023-03-12T06:59:21.753Z,74.30
2023-03-12T07:01:49.376Z,74.60
2023-03-12T07:04:16.399Z,74.80
2023-03-12T07:06:43.698Z,75.10
2023-03-12T07:09:10.658Z,75.40
2023-03-12T07:11:37.521Z,75.70
2023-03-12T07:14:04.402Z,75.90
2023-03-12T07:16:31.680Z,76.20
2023-03-12T07:18:59.085Z,76.40
2023-03-12T07:21:26.298Z,76.70
2023-03-12T07:23:53.621Z,77.00
2023-03-12T07:26:21.138Z,77.20
2023-03-12T07:28:48.052Z,77.30
2023-03-12T07:31:15.040Z,77.60
2023-03-12T07:33:42.074Z,77.70
2023-03-12T07:36:09.159Z,77.80
2023-03-12T07:38:36.308Z,78.00
2023-03-12T07:41:03.353Z,78.10
2023-03-12T07:43:30.425Z,78.20
2023-03-12T07:45:57.457Z,78.50
2023-03-12T07:48:24.426Z,78.60
2023-03-12T07:50:52.051Z,78.80
2023-03-12T07:53:19.285Z,79.00
2023-03-12T07:55:48.016Z,79.20
2023-03-12T07:58:18.218Z,79.50
2023-03-12T08:00:45.452Z,79.60
2023-03-12T08:03:13.487Z,79.80
2023-03-12T08:05:40.731Z,79.90
2023-03-12T08:08:07.783Z,80.00
2023-03-12T08:10:34.831Z,80.10
2023-03-12T08:13:01.757Z,80.30
2023-03-12T08:15:28.712Z,80.50
2023-03-12T08:17:55.593Z,80.70
2023-03-12T08:20:22.498Z,80.80
2023-03-12T08:22:49.361Z,80.90
2023-03-12T08:25:18.573Z,81.10
2023-03-12T08:27:45.436Z,81.30
2023-03-12T08:30:13.345Z,81.40
2023-03-12T08:32:40.505Z,81.40
2023-03-12T08:35:07.807Z,81.60
2023-03-12T08:37:34.674Z,81.80
2023-03-12T08:40:02.183Z,82.00
2023-03-12T08:42:29.020Z,82.10
2023-03-12T08:44:55.896Z,82.40
2023-03-12T08:47:22.862Z,82.60
2023-03-12T08:49:49.747Z,82.70
2023-03-12T08:52:16.830Z,82.80
2023-03-12T08:54:43.832Z,83.00
2023-03-12T08:57:10.946Z,83.10
2023-03-12T08:59:37.941Z,83.20
2023-03-12T09:02:05.218Z,83.40
2023-03-12T09:04:32.119Z,83.60
2023-03-12T09:07:01.234Z,83.80
2023-03-12T09:09:28.139Z,83.90
2023-03-12T09:11:55.193Z,84.10
2023-03-12T09:14:58.007Z,84.20
2023-03-12T09:17:09.156Z,84.30
2023-03-12T09:19:36.144Z,84.50
2023-03-12T09:22:03.028Z,84.70
2023-03-12T09:24:29.957Z,85.00
2023-03-12T09:26:56.911Z,85.30
2023-03-12T09:29:24.790Z,85.60
2023-03-12T09:31:52.092Z,85.70
2023-03-12T09:34:18.979Z,85.80
2023-03-12T09:36:45.832Z,85.70
2023-03-12T09:39:12.804Z,85.70
2023-03-12T09:41:41.752Z,85.80
2023-03-12T09:44:26.925Z,86.20
2023-03-12T09:47:01.206Z,86.50
2023-03-12T09:49:37.478Z,86.40
2023-03-12T09:52:21.744Z,86.50
2023-03-12T09:55:07.788Z,86.60
2023-03-12T09:57:34.907Z,86.40
2023-03-12T10:00:01.915Z,86.40
2023-03-12T10:03:05.934Z,86.30
2023-03-12T10:05:54.295Z,87.30
2023-03-12T10:08:45.827Z,86.50
2023-03-12T10:11:25.152Z,86.80
2023-03-12T10:14:29.527Z,86.90
2023-03-12T10:17:14.905Z,87.10
2023-03-12T10:20:03.848Z,87.50
2023-03-12T10:22:39.712Z,87.70
2023-03-12T10:25:06.556Z,87.80
2023-03-12T10:27:37.226Z,87.80
2023-03-12T10:30:16.847Z,88.10
2023-03-12T10:32:52.039Z,88.10
2023-03-12T10:35:25.252Z,88.20
2023-03-12T10:37:57.750Z,88.20
2023-03-12T10:40:34.174Z,88.20
2023-03-12T10:43:02.346Z,88.30
2023-03-12T10:45:56.646Z,88.30
2023-03-12T10:48:25.797Z,88.40
2023-03-12T10:51:10.757Z,88.60
2023-03-12T10:53:44.796Z,88.90
2023-03-12T10:56:22.008Z,88.90
2023-03-12T10:58:51.405Z,88.90
2023-03-12T11:01:30.582Z,89.00
2023-03-12T11:04:22.434Z,89.30
2023-03-12T11:07:03.951Z,89.50
2023-03-12T11:09:31.299Z,89.90
2023-03-12T11:11:58.225Z,90.20
2023-03-12T11:14:27.959Z,90.30
2023-03-12T11:16:56.565Z,90.30
2023-03-12T11:19:28.018Z,90.30
2023-03-12T11:22:04.963Z,90.40
2023-03-12T11:24:32.066Z,90.40
2023-03-12T11:27:01.933Z,90.40
2023-03-12T11:29:32.980Z,90.50
2023-03-12T11:32:30.089Z,90.60
2023-03-12T11:34:57.422Z,90.70
2023-03-12T11:37:45.455Z,90.80
2023-03-12T11:40:27.519Z,90.90
2023-03-12T11:43:07.727Z,90.90
2023-03-12T11:45:52.621Z,91.00
2023-03-12T11:48:27.438Z,91.00
2023-03-12T11:51:16.108Z,90.90
2023-03-12T11:54:08.174Z,91.00
2023-03-12T11:56:44.721Z,91.00
2023-03-12T11:59:49.635Z,91.00
2023-03-12T12:03:03.052Z,90.90
2023-03-12T12:05:36.060Z,90.90
2023-03-12T12:08:25.497Z,91.00
2023-03-12T12:11:14.481Z,90.90
2023-03-12T12:14:00.116Z,90.90
2023-03-12T12:16:46.673Z,90.90
2023-03-12T12:19:20.940Z,91.10
2023-03-12T12:22:08.070Z,91.20
2023-03-12T12:25:01.139Z,91.00
2023-03-12T12:27:33.054Z,90.90
2023-03-12T12:30:05.743Z,90.70
2023-03-12T12:33:01.927Z,90.70
2023-03-12T12:35:40.609Z,90.60
2023-03-12T12:38:30.637Z,90.70
2023-03-12T12:41:14.194Z,90.70
2023-03-12T12:43:44.195Z,90.70
2023-03-12T12:46:26.408Z,90.70
2023-03-12T12:48:56.901Z,90.70
2023-03-12T12:51:28.265Z,90.60
2023-03-12T12:54:43.956Z,90.50
2023-03-12T12:57:29.189Z,90.30
2023-03-12T13:00:14.860Z,90.00
2023-03-12T13:02:44.385Z,89.40
2023-03-12T13:05:21.477Z,89.60
2023-03-12T13:07:48.762Z,89.80
2023-03-12T13:10:34.199Z,89.60
2023-03-12T13:13:07.377Z,89.20
2023-03-12T13:15:40.084Z,89.10
2023-03-12T13:18:28.340Z,89.30
2023-03-12T13:20:55.214Z,89.30
2023-03-12T13:23:31.149Z,88.30
2023-03-12T13:26:04.824Z,87.90
2023-03-12T13:28:35.549Z,87.40
2023-03-12T13:31:36.442Z,87.10
2023-03-12T13:34:06.427Z,86.80
2023-03-12T13:36:37.024Z,86.90
2023-03-12T13:39:06.930Z,86.70
2023-03-12T13:41:41.145Z,86.20
2023-03-12T13:44:23.296Z,85.80
2023-03-12T13:47:04.337Z,85.40
2023-03-12T13:49:37.431Z,85.60
2023-03-12T13:52:18.526Z,85.40
2023-03-12T13:54:48.670Z,85.30
2023-03-12T13:57:55.244Z,84.70
2023-03-12T14:00:33.216Z,85.00
2023-03-12T14:03:13.802Z,84.00
2023-03-12T14:06:18.866Z,84.40
2023-03-12T14:08:54.726Z,83.50
2023-03-12T14:11:37.598Z,81.60
2023-03-12T14:14:10.741Z,82.20
2023-03-12T14:16:45.939Z,81.40
2023-03-12T14:19:14.474Z,80.60
2023-03-12T14:21:44.954Z,78.30
2023-03-12T14:24:27.161Z,75.90
2023-03-12T14:26:55.770Z,74.60
2023-03-12T14:29:25.641Z,73.50
2023-03-12T14:31:57.368Z,72.60
2023-03-12T14:34:27.473Z,70.80
2023-03-12T14:37:07.816Z,70.60
2023-03-12T14:39:46.550Z,70.00
2023-03-12T14:42:27.308Z,69.60
2023-03-12T14:45:04.562Z,69.50
2023-03-12T14:47:52.295Z,69.60
2023-03-12T14:50:22.209Z,69.10
2023-03-12T14:52:49.152Z,68.90
2023-03-12T14:55:20.974Z,68.90
2023-03-12T14:57:48.137Z,68.80
2023-03-12T15:00:27.826Z,68.80
2023-03-12T15:02:57.868Z,69.00
2023-03-12T15:05:25.278Z,69.40
2023-03-12T15:07:56.468Z,69.00
2023-03-12T15:10:25.959Z,69.30
2023-03-12T15:12:56.059Z,69.30
2023-03-12T15:15:36.275Z,69.30
2023-03-12T15:18:23.175Z,69.80
2023-03-12T15:20:51.574Z,69.40
2023-03-12T15:23:19.601Z,69.30
2023-03-12T15:25:46.960Z,69.10
2023-03-12T15:28:18.260Z,70.10
2023-03-12T15:30:45.193Z,70.10
2023-03-12T15:33:24.573Z,70.80
2023-03-12T15:36:23.258Z,71.40
2023-03-12T15:39:12.948Z,71.40
2023-03-12T15:41:49.274Z,72.00
2023-03-12T15:44:47.288Z,72.60
2023-03-12T15:47:23.863Z,73.30
2023-03-12T15:50:15.760Z,73.50
2023-03-12T15:52:57.661Z,73.30
2023-03-12T15:55:28.058Z,73.10
2023-03-12T15:57:56.932Z,73.60
2023-03-12T16:00:51.657Z,73.40
2023-03-12T16:03:20.924Z,73.40
2023-03-12T16:05:50.204Z,73.20
2023-03-12T16:08:21.672Z,73.20
2023-03-12T16:10:49.955Z,72.70
2023-03-12T16:13:19.922Z,73.00
2023-03-12T16:15:48.105Z,72.70
2023-03-12T16:18:17.811Z,72.80
2023-03-12T16:20:45.359Z,72.90
2023-03-12T16:23:12.951Z,72.80
2023-03-12T16:25:43.732Z,73.00
2023-03-12T16:28:13.590Z,73.10
2023-03-12T16:30:41.070Z,73.30
2023-03-12T16:33:09.284Z,73.30
2023-03-12T16:35:36.514Z,73.50
2023-03-12T16:38:03.497Z,73.80
2023-03-12T16:40:36.097Z,74.00
2023-03-12T16:43:06.657Z,74.10
2023-03-12T16:45:35.973Z,74.40
2023-03-12T16:48:06.478Z,74.60
2023-03-12T16:50:33.449Z,74.70
2023-03-12T16:53:02.486Z,74.80
2023-03-12T16:55:39.875Z,75.00
2023-03-12T16:58:07.160Z,75.20
2023-03-12T17:00:34.569Z,75.20
2023-03-12T17:03:01.989Z,75.40
2023-03-12T17:05:30.064Z,75.50
2023-03-12T17:07:58.353Z,75.50
2023-03-12T17:10:26.346Z,75.70
2023-03-12T17:12:53.820Z,76.10
2023-03-12T17:15:23.605Z,76.40
2023-03-12T17:17:50.634Z,76.60
2023-03-12T17:20:20.070Z,76.70
2023-03-12T17:22:47.148Z,76.70
2023-03-12T17:25:34.921Z,76.80
2023-03-12T17:28:01.786Z,77.00
2023-03-12T17:30:29.958Z,77.20
2023-03-12T17:33:11.859Z,77.40
2023-03-12T17:35:39.889Z,77.40
2023-03-12T17:38:07.525Z,77.50
2023-03-12T17:40:36.073Z,77.70
2023-03-12T17:43:02.907Z,77.80
2023-03-12T17:45:30.121Z,77.80
2023-03-12T17:47:57.126Z,77.90
2023-03-12T17:50:24.073Z,77.90
2023-03-12T17:52:51.437Z,78.10
2023-03-12T17:55:18.400Z,78.30
2023-03-12T17:57:45.375Z,78.50
2023-03-12T18:00:13.353Z,78.60
2023-03-12T18:02:41.484Z,78.60
2023-03-12T18:05:10.427Z,78.70
2023-03-12T18:07:38.006Z,78.80
2023-03-12T18:10:07.659Z,78.80
2023-03-12T18:12:35.104Z,79.00
2023-03-12T18:15:02.081Z,78.90
2023-03-12T18:17:29.034Z,78.90
2023-03-12T18:19:55.961Z,78.80
2023-03-12T18:22:24.384Z,78.80
2023-03-12T18:24:51.301Z,78.80
2023-03-12T18:27:18.210Z,78.90
2023-03-12T18:29:45.152Z,78.90
2023-03-12T18:32:12.002Z,79.00
2023-03-12T18:34:42.180Z,79.10
2023-03-12T18:37:09.085Z,79.10
2023-03-12T18:39:36.087Z,79.20
2023-03-12T18:42:03.020Z,79.30
2023-03-12T18:44:29.971Z,79.30
2023-03-12T18:46:56.929Z,79.40
2023-03-12T18:49:23.891Z,79.50
2023-03-12T18:51:55.781Z,79.60
2023-03-12T18:54:24.801Z,79.50
2023-03-12T18:56:51.816Z,79.60
2023-03-12T18:59:18.802Z,79.70
2023-03-12T19:01:45.993Z,79.60
2023-03-12T19:04:17.273Z,79.60
2023-03-12T19:06:51.285Z,79.50
2023-03-12T19:09:19.039Z,79.30
2023-03-12T19:11:49.539Z,79.30
2023-03-12T19:14:16.866Z,79.40
2023-03-12T19:16:43.964Z,79.40
2023-03-12T19:19:10.857Z,79.40
2023-03-12T19:21:37.715Z,79.10
2023-03-12T19:24:04.853Z,79.30
2023-03-12T19:26:31.775Z,79.20
2023-03-12T19:28:58.625Z,79.20
2023-03-12T19:31:25.741Z,79.10
2023-03-12T19:33:52.723Z,79.00
2023-03-12T19:36:19.687Z,79.10
2023-03-12T19:38:46.771Z,79.00
2023-03-12T19:41:13.723Z,78.90
2023-03-12T19:43:41.243Z,79.00
2023-03-12T19:46:08.315Z,78.90
2023-03-12T19:48:35.361Z,79.00
2023-03-12T19:51:10.662Z,79.10
2023-03-12T19:53:38.384Z,79.30
2023-03-12T19:56:05.656Z,79.30
2023-03-12T19:58:32.536Z,79.30
2023-03-12T20:01:00.783Z,79.40
2023-03-12T20:03:28.504Z,79.30
2023-03-12T20:05:55.941Z,79.40
2023-03-12T20:08:26.075Z,79.30
2023-03-12T20:10:52.969Z,79.30
2023-03-12T20:13:20.211Z,79.30
2023-03-12T20:15:48.390Z,79.40
2023-03-12T20:18:15.924Z,79.30
2023-03-12T20:20:43.248Z,79.30
2023-03-12T20:23:10.117Z,79.20
2023-03-12T20:25:43.282Z,79.10
2023-03-12T20:28:12.937Z,79.10
2023-03-12T20:30:42.460Z,79.10
2023-03-12T20:33:09.464Z,79.10
2023-03-12T20:35:36.594Z,79.20
2023-03-12T20:38:04.101Z,79.10
2023-03-12T20:40:31.153Z,79.00
2023-03-12T20:42:58.016Z,78.90
2023-03-12T20:45:24.961Z,78.90
2023-03-12T20:47:53.441Z,78.90
2023-03-12T20:50:20.427Z,78.90
2023-03-12T20:52:47.323Z,78.90
2023-03-12T20:55:14.214Z,78.90
2023-03-12T20:57:41.030Z,78.90
2023-03-12T21:00:08.668Z,78.80
2023-03-12T21:02:35.762Z,78.90
2023-03-12T21:05:02.785Z,78.90
2023-03-12T21:07:29.732Z,79.90
2023-03-12T21:09:56.649Z,79.00
2023-03-12T21:12:23.559Z,79.00
2023-03-12T21:14:50.481Z,78.90
2023-03-12T21:17:17.428Z,78.80
2023-03-12T21:19:44.661Z,78.90
2023-03-12T21:22:11.534Z,78.90
2023-03-12T21:24:38.477Z,78.80
2023-03-12T21:27:05.409Z,78.80
2023-03-12T21:29:32.369Z,78.80
2023-03-12T21:31:59.227Z,78.80
2023-03-12T21:34:29.424Z,78.80
2023-03-12T21:36:56.876Z,78.90
2023-03-12T21:39:23.765Z,78.90
2023-03-12T21:41:50.624Z,78.90
2023-03-12T21:44:17.483Z,78.90
2023-03-12T21:46:44.511Z,78.90
2023-03-12T21:49:13.788Z,78.70
2023-03-12T21:51:40.735Z,78.70
2023-03-12T21:54:07.691Z,78.60
2023-03-12T21:56:34.624Z,78.60
2023-03-12T21:59:01.580Z,78.50
2023-03-12T22:01:28.698Z,78.40
2023-03-12T22:03:55.921Z,78.50
2023-03-12T22:06:22.823Z,78.50
2023-03-12T22:08:49.883Z,78.50
2023-03-12T22:11:17.110Z,78.50
2023-03-12T22:13:44.156Z,78.50
2023-03-12T22:16:12.121Z,78.50
2023-03-12T22:18:41.673Z,78.50
2023-03-12T22:21:13.064Z,78.50
2023-03-12T22:23:39.958Z,78.40
2023-03-12T22:26:07.315Z,78.50
2023-03-12T22:28:34.616Z,78.50
2023-03-12T22:31:04.766Z,78.50
2023-03-12T22:33:32.367Z,78.50
2023-03-12T22:35:59.273Z,78.60
2023-03-12T22:38:26.423Z,78.70
2023-03-12T22:40:55.693Z,78.70
2023-03-12T22:43:25.353Z,78.70
2023-03-12T22:45:55.211Z,78.80
2023-03-12T22:48:22.047Z,78.90
2023-03-12T22:50:55.357Z,79.00
2023-03-12T22:53:22.370Z,79.10
2023-03-12T22:56:00.184Z,79.10
2023-03-12T22:58:28.039Z,79.30
2023-03-12T23:01:02.785Z,79.50
2023-03-12T23:03:31.375Z,79.60
2023-03-12T23:05:58.986Z,79.70
2023-03-12T23:08:26.540Z,79.90
2023-03-12T23:10:54.778Z,80.00
2023-03-12T23:13:22.223Z,80.20
2023-03-12T23:15:49.548Z,80.30
2023-03-12T23:18:17.105Z,80.50
2023-03-12T23:20:44.240Z,80.60
2023-03-12T23:23:11.438Z,80.70
2023-03-12T23:25:38.575Z,80.80
2023-03-12T23:28:05.425Z,80.90
2023-03-12T23:30:32.282Z,81.00
2023-03-12T23:32:59.197Z,81.10
2023-03-12T23:35:26.299Z,81.20
2023-03-12T23:37:56.440Z,81.40
2023-03-12T23:40:23.388Z,81.60
2023-03-12T23:42:50.240Z,81.70
2023-03-12T23:45:17.204Z,81.90
2023-03-12T23:47:44.098Z,81.90
2023-03-12T23:50:11.714Z,82.20
2023-03-12T23:52:38.619Z,82.20
2023-03-12T23:55:06.074Z,82.40
2023-03-12T23:57:33.007Z,82.50
2023-03-12T23:59:59.860Z,82.60
